Machrihanish, United Kingdom
Current Conditions -  °F | °C
As of 7:50 PM on Sunday 21 Dec 2014 (Local Time) from EGPI Reporting Station
Light Rain Light Rain  
Wind Chill: 52°   Ceiling: 700
Heat Index: 52°   Visibility: 3mi
Dew Point: 50°   Wind: 21mph
Humidity: 94%   Direction: 260°W
Pressure: 29.68"   Gusts: NA
Location:  55.43°N, 5.7°W
Report Text: EGPI 211950Z 26018KT 5000 -RADZ FEW003 BKN007 11/10 Q1005
Loading
Personal Weather Stations






























Interactive Weather Map New forecast layout! Learn more

10-Day Weather Forecast

Advertisements
Track Severe Weather on mobile